Terminal Aerodrome Forecast
Issued by NWS Green Bay, WI

Home | Current Version | Previous Version | Graphics & Text | Print | Product List | Glossary On
Versions: 1 2 3 4 5 6 7 8 9 10 11 12 13 14 15 16 17 18 19 20 21 22 23 24 25 26 27 28 29 30 31 32 33 34 35 36 37 38 39 40 41 42 43 44 45 46 47 48 49 50
000
FTUS43 KGRB 261200 AAA
TAFGRB
TAF AMD
KGRB 261238Z 2613/2712 VRB03KT 6SM BR SCT015 SCT060
      TEMPO 2613/2617 BKN015
     FM261700 07003KT P6SM SCT025 BKN070
     FM270500 31005KT P6SM SCT014 BKN025=

USA.gov is the U.S. government's official web portal to all federal, state and local government web resources and services.